Time;durP1;ratioP1;P1;durP2;ratioP2;P2;SDS_P1;SDS_P2;PMS_P1;PMS_P2;Temp;Humidity;BMP_temperature;BMP_pressure;BME280_temperature;BME280_humidity;BME280_pressure;Samples;Min_cycle;Max_cycle;Signal;HPM_P1;HPM_P2
2024/03/18 00:00:15;;;;;;;12.55;9.77;;;;;;;9.11;87.22;100509.31;2511949;28;20503;-78
2024/03/18 00:01:32;;;;;;;16.83;10.27;;;;;;;9.11;87.37;100505.81;2513684;28;20030;-78
2024/03/18 00:02:47;;;;;;;17.00;11.38;;;;;;;9.10;87.20;100504.97;2514487;28;20388;-78
2024/03/18 00:04:00;;;;;;;12.88;10.48;;;;;;;9.11;87.22;100500.63;2522274;28;20022;-78
2024/03/18 00:05:15;;;;;;;16.08;9.40;;;;;;;9.10;87.01;100499.75;2521385;28;20645;-78
2024/03/18 00:06:28;;;;;;;10.95;9.82;;;;;;;9.08;87.07;100493.69;2504642;28;20045;-78
2024/03/18 00:07:42;;;;;;;12.90;9.40;;;;;;;9.09;87.22;100500.66;2512141;28;20022;-78
2024/03/18 00:08:56;;;;;;;18.02;9.15;;;;;;;9.11;87.14;100500.63;2511567;28;20510;-78
2024/03/18 00:10:09;;;;;;;14.93;9.68;;;;;;;9.11;87.29;100506.72;2518752;28;20037;-78
2024/03/18 00:11:22;;;;;;;14.60;10.55;;;;;;;9.12;87.33;100503.22;2523283;28;20049;-78
2024/03/18 00:12:39;;;;;;;9.75;8.80;;;;;;;9.12;87.17;100499.78;2524142;28;20091;-78
2024/03/18 00:13:53;;;;;;;14.77;10.00;;;;;;;9.12;87.31;100503.22;2518089;28;20105;-78
2024/03/18 00:15:08;;;;;;;12.90;10.10;;;;;;;9.14;87.23;100506.69;2513833;28;20037;-78
2024/03/18 00:16:21;;;;;;;16.33;10.15;;;;;;;9.16;87.41;100504.06;2514191;28;20022;-78
2024/03/18 00:17:34;;;;;;;13.27;9.65;;;;;;;9.17;87.04;100506.69;2535238;28;20485;-78
2024/03/18 00:18:48;;;;;;;13.38;9.48;;;;;;;9.16;87.22;100507.56;2529947;28;20105;-78
2024/03/18 00:20:08;;;;;;;12.82;9.40;;;;;;;9.18;87.28;100507.53;2537152;28;20016;-78
2024/03/18 00:21:21;;;;;;;21.50;9.98;;;;;;;9.18;87.48;100508.41;2528361;28;20113;-78
2024/03/18 00:22:37;;;;;;;12.07;9.77;;;;;;;9.20;87.47;100512.75;2526521;28;20402;-78
2024/03/18 00:23:50;;;;;;;10.98;9.85;;;;;;;9.21;87.36;100501.44;2519558;28;20026;-78
2024/03/18 00:25:05;;;;;;;12.80;10.18;;;;;;;9.20;87.71;100512.75;2507104;28;20027;-78
2024/03/18 00:26:18;;;;;;;11.60;9.35;;;;;;;9.21;87.39;100511.84;2513493;28;20038;-78
2024/03/18 00:27:32;;;;;;;13.65;9.40;;;;;;;9.22;87.55;100503.19;2514174;28;20625;-78
2024/03/18 00:28:45;;;;;;;12.32;9.68;;;;;;;9.23;87.38;100499.72;2514291;28;20384;-77
2024/03/18 00:30:00;;;;;;;12.52;9.43;;;;;;;9.25;87.61;100492.75;2519722;28;20509;-79
2024/03/18 00:31:13;;;;;;;11.27;9.07;;;;;;;9.25;87.57;100501.44;2543911;28;20029;-78
2024/03/18 00:32:29;;;;;;;16.25;10.88;;;;;;;9.26;87.68;100497.06;2536997;28;20022;-78
2024/03/18 00:33:42;;;;;;;10.95;9.68;;;;;;;9.27;87.47;100498.84;2539255;28;20600;-78
2024/03/18 00:34:57;;;;;;;16.02;10.13;;;;;;;9.27;87.37;100496.22;2526258;28;20064;-79
2024/03/18 00:36:10;;;;;;;16.90;10.18;;;;;;;9.26;87.49;100492.72;2513644;28;20018;-78
2024/03/18 00:37:23;;;;;;;12.55;9.70;;;;;;;9.25;87.27;100487.56;2513532;28;20065;-78
2024/03/18 00:38:36;;;;;;;13.50;9.48;;;;;;;9.24;86.82;100493.59;2536821;28;20025;-78
2024/03/18 00:39:50;;;;;;;14.38;10.07;;;;;;;9.21;87.32;100481.47;2526595;28;20073;-78
2024/03/18 00:42:35;;;;;;;10.02;8.00;;;;;;;9.18;87.19;100479.75;2513530;28;20073;-77
2024/03/18 00:43:48;;;;;;;15.80;10.80;;;;;;;9.18;87.29;100476.28;2513618;28;20547;-77
2024/03/18 00:45:02;;;;;;;13.10;10.68;;;;;;;9.17;87.13;100482.38;2513718;28;20022;-76
2024/03/18 00:46:15;;;;;;;13.07;9.93;;;;;;;9.16;87.20;100481.53;2514954;28;20053;-77
2024/03/18 00:47:28;;;;;;;15.13;9.52;;;;;;;9.17;87.26;100472.81;2513334;28;20101;-77
2024/03/18 00:48:42;;;;;;;16.30;10.07;;;;;;;9.18;87.40;100478.91;2502890;28;20188;-77
2024/03/18 00:49:55;;;;;;;15.85;11.07;;;;;;;9.18;87.29;100477.16;2511445;28;20117;-77
2024/03/18 00:51:08;;;;;;;11.60;9.30;;;;;;;9.19;87.38;100478.03;2512717;28;20113;-77
2024/03/18 00:52:21;;;;;;;13.23;9.55;;;;;;;9.20;87.45;100473.69;2516212;28;20403;-77
2024/03/18 00:53:35;;;;;;;16.45;11.02;;;;;;;9.21;87.53;100470.19;2520275;28;20436;-77
2024/03/18 00:54:48;;;;;;;17.92;9.80;;;;;;;9.21;87.23;100476.25;2513405;28;20472;-77
2024/03/18 00:56:06;;;;;;;11.63;9.13;;;;;;;9.21;87.33;100459.78;2532520;28;20426;-77
2024/03/18 00:57:19;;;;;;;18.73;10.48;;;;;;;9.23;87.49;100468.47;2518469;28;20102;-77
2024/03/18 00:58:34;;;;;;;14.05;11.18;;;;;;;9.23;87.49;100469.31;2522579;28;20029;-77
2024/03/18 00:59:47;;;;;;;13.95;10.38;;;;;;;9.23;87.32;100468.47;2542597;28;20460;-77
2024/03/18 01:01:00;;;;;;;12.77;9.48;;;;;;;9.23;87.34;100463.25;2535320;28;20026;-77
2024/03/18 01:02:14;;;;;;;14.20;10.68;;;;;;;9.21;87.36;100465.00;2514300;28;20035;-77
2024/03/18 01:03:27;;;;;;;12.48;9.32;;;;;;;9.20;87.21;100463.28;2526146;28;20478;-78
2024/03/18 01:04:40;;;;;;;11.07;9.95;;;;;;;9.18;87.36;100461.53;2525894;28;20053;-77
2024/03/18 01:05:53;;;;;;;13.32;11.77;;;;;;;9.17;87.10;100457.19;2512942;28;20046;-77
2024/03/18 01:07:07;;;;;;;14.75;10.43;;;;;;;9.15;87.19;100458.94;2512565;28;20072;-77
2024/03/18 01:08:21;;;;;;;14.23;10.15;;;;;;;9.14;87.29;100454.63;2512549;28;20093;-77
2024/03/18 01:09:36;;;;;;;15.98;11.07;;;;;;;9.12;87.01;100456.38;2508227;28;20059;-77
2024/03/18 01:10:49;;;;;;;10.88;9.65;;;;;;;9.10;87.11;100458.09;2536497;28;20029;-77
2024/03/18 01:12:03;;;;;;;14.73;10.52;;;;;;;9.10;87.29;100450.31;2545263;28;20018;-77
2024/03/18 01:13:16;;;;;;;14.65;10.40;;;;;;;9.09;87.18;100458.13;2529941;28;20033;-77
2024/03/18 01:14:30;;;;;;;14.05;9.23;;;;;;;9.07;87.21;100450.31;2506029;28;20105;-77
2024/03/18 01:15:43;;;;;;;12.80;9.10;;;;;;;9.07;87.19;100452.91;2512729;28;20096;-77
2024/03/18 01:16:57;;;;;;;13.10;9.95;;;;;;;9.07;87.09;100452.91;2532221;28;20017;-77
2024/03/18 01:18:11;;;;;;;16.35;10.70;;;;;;;9.08;87.36;100451.19;2531633;28;20124;-78
2024/03/18 01:19:24;;;;;;;13.00;10.30;;;;;;;9.08;87.48;100451.19;2542367;28;20119;-77
2024/03/18 01:20:38;;;;;;;11.40;9.40;;;;;;;9.08;87.24;100440.78;2528824;28;20521;-77
2024/03/18 01:21:51;;;;;;;14.38;10.30;;;;;;;9.11;87.34;100444.22;2517269;28;20113;-77
2024/03/18 01:23:05;;;;;;;13.90;10.90;;;;;;;9.13;87.66;100442.47;2532298;28;20099;-77
2024/03/18 01:24:18;;;;;;;12.48;10.68;;;;;;;9.14;87.53;100446.81;2508615;28;20620;-77
2024/03/18 01:25:33;;;;;;;14.98;9.30;;;;;;;9.15;87.66;100442.47;2521070;28;20072;-78
2024/03/18 01:26:46;;;;;;;14.55;9.85;;;;;;;9.17;87.62;100443.31;2528473;28;20104;-77
2024/03/18 01:28:00;;;;;;;12.55;9.38;;;;;;;9.17;87.67;100443.31;2522456;28;20446;-77
2024/03/18 01:29:13;;;;;;;29.70;11.48;;;;;;;9.18;87.57;100437.22;2532016;28;20514;-77
2024/03/18 01:30:26;;;;;;;16.33;10.32;;;;;;;9.20;87.74;100430.28;2519050;28;20388;-77
2024/03/18 01:31:39;;;;;;;15.02;10.10;;;;;;;9.21;87.65;100428.53;2513045;28;20712;-77
2024/03/18 01:32:53;;;;;;;11.32;9.20;;;;;;;9.21;87.53;100428.53;2513011;28;20121;-77
2024/03/18 01:34:09;;;;;;;14.52;10.82;;;;;;;9.23;87.73;100429.41;2511862;28;20103;-77
2024/03/18 01:35:22;;;;;;;15.27;9.65;;;;;;;9.23;87.71;100421.59;2525709;28;20035;-77
2024/03/18 01:36:36;;;;;;;14.40;10.05;;;;;;;9.23;87.45;100421.59;2525192;28;20049;-78
2024/03/18 01:37:49;;;;;;;14.15;9.45;;;;;;;9.23;87.73;100424.19;2512448;28;20713;-77
2024/03/18 01:39:02;;;;;;;10.50;8.27;;;;;;;9.22;87.35;100425.94;2512993;28;20101;-77
2024/03/18 01:40:16;;;;;;;13.70;9.70;;;;;;;9.21;87.83;100429.41;2532080;28;20075;-77
2024/03/18 01:41:30;;;;;;;10.27;8.73;;;;;;;9.21;87.50;100429.41;2526516;28;20022;-77
2024/03/18 01:42:44;;;;;;;13.80;9.02;;;;;;;9.20;87.61;100425.06;2541950;28;20044;-77
2024/03/18 01:43:57;;;;;;;18.90;10.60;;;;;;;9.20;87.48;100426.81;2528636;28;20018;-78
2024/03/18 01:45:10;;;;;;;13.80;9.70;;;;;;;9.21;87.58;100428.53;2522552;28;20352;-77
2024/03/18 01:46:24;;;;;;;23.17;10.95;;;;;;;9.21;87.58;100423.34;2541456;28;20498;-77
2024/03/18 01:47:38;;;;;;;13.80;10.07;;;;;;;9.21;87.50;100416.38;2528304;28;20152;-77
2024/03/18 01:48:51;;;;;;;17.20;10.05;;;;;;;9.21;87.52;100418.97;2522737;28;20111;-77
2024/03/18 01:50:06;;;;;;;11.00;9.82;;;;;;;9.22;87.46;100417.28;2522440;28;20084;-77
2024/03/18 01:51:19;;;;;;;11.63;9.38;;;;;;;9.21;87.54;100413.78;2542049;28;20514;-76
2024/03/18 01:52:32;;;;;;;11.45;10.30;;;;;;;9.22;87.53;100407.72;2527893;28;20033;-77
2024/03/18 01:53:46;;;;;;;13.60;9.98;;;;;;;9.20;87.56;100406.84;2521788;28;20101;-77
2024/03/18 01:54:59;;;;;;;15.27;10.20;;;;;;;9.21;87.63;100410.31;2521727;28;20475;-77
2024/03/18 01:56:13;;;;;;;16.50;11.40;;;;;;;9.20;87.44;100406.84;2519880;28;20076;-77
2024/03/18 01:57:27;;;;;;;13.85;10.65;;;;;;;9.20;87.54;100411.19;2513543;28;20026;-77
2024/03/18 01:58:41;;;;;;;10.50;9.40;;;;;;;9.19;87.52;100405.13;2512438;28;20395;-77
2024/03/18 01:59:55;;;;;;;12.25;10.10;;;;;;;9.19;87.72;100402.53;2512960;28;20022;-77
2024/03/18 02:01:08;;;;;;;12.43;9.70;;;;;;;9.20;87.65;100401.63;2512649;28;20117;-77
2024/03/18 02:02:23;;;;;;;11.73;9.65;;;;;;;9.21;87.65;100399.91;2512297;28;20424;-77
2024/03/18 02:03:36;;;;;;;15.35;11.23;;;;;;;9.22;87.67;100399.03;2512759;28;20026;-78
2024/03/18 02:04:50;;;;;;;11.95;10.50;;;;;;;9.22;87.62;100397.28;2512638;28;20054;-78
2024/03/18 02:06:03;;;;;;;12.50;10.60;;;;;;;9.22;87.53;100399.91;2518302;28;20057;-77
2024/03/18 02:07:27;;;;;;;14.38;10.95;;;;;;;9.22;87.69;100397.28;2521824;28;20025;-78
2024/03/18 02:08:40;;;;;;;14.32;10.23;;;;;;;9.22;87.45;100399.03;2521912;28;20144;-78
2024/03/18 02:09:54;;;;;;;11.85;8.95;;;;;;;9.22;87.58;100389.47;2515933;28;20034;-77
2024/03/18 02:11:07;;;;;;;11.63;9.93;;;;;;;9.22;87.65;100386.88;2531699;28;20116;-77
2024/03/18 02:12:20;;;;;;;22.13;11.02;;;;;;;9.21;87.67;100382.53;2518488;28;20033;-77
2024/03/18 02:13:33;;;;;;;20.70;11.15;;;;;;;9.20;87.53;100390.38;2511477;28;20027;-77
2024/03/18 02:14:51;;;;;;;13.90;9.18;;;;;;;9.18;87.56;100386.03;2511992;28;20046;-77
2024/03/18 02:16:05;;;;;;;12.57;9.30;;;;;;;9.16;87.44;100387.78;2531793;28;20025;-77
2024/03/18 02:17:18;;;;;;;11.50;9.32;;;;;;;9.14;87.32;100389.53;2517938;28;20034;-77
2024/03/18 02:18:31;;;;;;;17.35;9.23;;;;;;;9.13;87.31;100386.94;2521994;28;20482;-77
2024/03/18 02:19:44;;;;;;;12.93;8.75;;;;;;;9.11;87.23;100386.06;2522340;28;20024;-76
2024/03/18 02:20:58;;;;;;;17.48;10.05;;;;;;;9.08;87.54;100379.16;2521861;28;20018;-77
2024/03/18 02:22:11;;;;;;;15.77;9.57;;;;;;;9.05;87.41;100378.31;2514149;28;20137;-78
2024/03/18 02:23:28;;;;;;;18.13;9.27;;;;;;;9.03;87.08;100367.03;2511777;28;20094;-77
2024/03/18 02:24:41;;;;;;;14.85;10.50;;;;;;;8.99;87.13;100365.34;2511885;28;20450;-77
2024/03/18 02:25:54;;;;;;;15.65;10.40;;;;;;;8.94;87.14;100362.78;2512009;28;20034;-77
2024/03/18 02:27:11;;;;;;;18.00;11.18;;;;;;;8.91;87.01;100368.00;2511420;28;20033;-77
2024/03/18 02:28:24;;;;;;;16.23;9.57;;;;;;;8.88;87.39;100362.78;2511773;28;20558;-77
2024/03/18 02:29:38;;;;;;;18.50;11.23;;;;;;;8.87;87.21;100367.13;2511227;28;20118;-77
2024/03/18 02:30:51;;;;;;;13.55;10.57;;;;;;;8.85;87.31;100366.28;2512105;28;20046;-77
2024/03/18 02:32:05;;;;;;;15.27;9.93;;;;;;;8.86;87.43;100369.78;2512573;28;20085;-77
2024/03/18 02:33:18;;;;;;;12.13;9.88;;;;;;;8.86;87.64;100364.56;2511396;28;20031;-77
2024/03/18 02:34:35;;;;;;;12.23;10.73;;;;;;;8.86;87.55;100368.03;2511419;28;20110;-77
2024/03/18 02:35:48;;;;;;;14.77;11.65;;;;;;;8.86;87.87;100368.03;2531370;28;20481;-77
2024/03/18 02:37:02;;;;;;;15.32;10.07;;;;;;;8.89;87.89;100369.75;2524856;28;20108;-77
2024/03/18 02:38:15;;;;;;;15.80;11.85;;;;;;;8.91;88.00;100357.59;2511828;28;20046;-77
2024/03/18 02:39:29;;;;;;;10.70;9.63;;;;;;;8.95;87.96;100364.50;2512374;28;20073;-77
2024/03/18 02:40:42;;;;;;;19.38;11.20;;;;;;;8.97;88.06;100356.69;2512408;28;20058;-77
2024/03/18 02:41:55;;;;;;;16.08;10.73;;;;;;;8.98;88.03;100364.47;2517400;28;20037;-77
2024/03/18 02:43:08;;;;;;;12.90;11.57;;;;;;;9.00;88.01;100365.31;2522298;28;20022;-77
2024/03/18 02:44:22;;;;;;;20.88;12.85;;;;;;;9.01;87.96;100359.25;2522122;28;20057;-78
2024/03/18 02:45:35;;;;;;;12.15;10.30;;;;;;;9.03;88.15;100360.09;2518441;28;20101;-77
2024/03/18 02:46:50;;;;;;;14.35;11.80;;;;;;;9.04;88.10;100359.22;2524247;28;20201;-78
2024/03/18 02:48:03;;;;;;;23.13;12.00;;;;;;;9.06;88.14;100351.41;2510113;28;20018;-77
2024/03/18 02:49:17;;;;;;;13.25;10.75;;;;;;;9.07;88.09;100354.00;2509898;28;20022;-77
2024/03/18 02:50:31;;;;;;;13.95;10.93;;;;;;;9.08;88.17;100355.72;2511419;28;20026;-77
2024/03/18 02:51:44;;;;;;;15.85;10.68;;;;;;;9.09;88.14;100354.84;2524915;28;20453;-77
2024/03/18 02:52:57;;;;;;;16.95;12.13;;;;;;;9.11;87.84;100354.84;2518009;28;20464;-77
2024/03/18 02:54:10;;;;;;;13.13;10.98;;;;;;;9.12;88.04;100351.38;2511552;28;20527;-77
2024/03/18 02:55:25;;;;;;;14.60;10.50;;;;;;;9.13;88.06;100353.94;2512252;28;20058;-77
2024/03/18 02:56:38;;;;;;;13.73;11.48;;;;;;;9.15;88.14;100356.56;2511676;28;20594;-78
2024/03/18 02:57:52;;;;;;;14.77;10.70;;;;;;;9.16;88.12;100351.34;2511192;28;20034;-77
2024/03/18 02:59:05;;;;;;;15.13;11.55;;;;;;;9.17;87.97;100352.19;2521490;28;20029;-77
2024/03/18 03:00:18;;;;;;;15.63;11.27;;;;;;;9.17;88.28;100349.59;2519215;28;20022;-77
2024/03/18 03:01:32;;;;;;;17.80;11.68;;;;;;;9.17;88.17;100347.84;2514045;28;20029;-77
2024/03/18 03:02:45;;;;;;;17.92;12.07;;;;;;;9.17;88.15;100347.84;2521360;28;20049;-78
2024/03/18 03:03:58;;;;;;;13.68;10.45;;;;;;;9.17;88.19;100347.84;2521249;28;20030;-78
2024/03/18 03:05:11;;;;;;;17.08;11.57;;;;;;;9.19;88.13;100345.25;2521900;28;20053;-77
2024/03/18 03:06:25;;;;;;;17.65;11.75;;;;;;;9.19;88.07;100347.84;2521744;28;20030;-78
2024/03/18 03:07:38;;;;;;;16.10;10.48;;;;;;;9.17;88.05;100337.44;2521932;28;20022;-77
2024/03/18 03:08:51;;;;;;;17.50;10.82;;;;;;;9.19;87.99;100337.44;2541166;28;20026;-78
2024/03/18 03:10:05;;;;;;;13.35;10.27;;;;;;;9.20;87.97;100338.28;2527500;28;20081;-77
2024/03/18 03:11:18;;;;;;;15.35;10.60;;;;;;;9.18;87.98;100333.94;2512243;28;20019;-77
2024/03/18 03:12:32;;;;;;;15.80;10.50;;;;;;;9.18;88.18;100336.56;2512268;28;20053;-77
2024/03/18 03:13:45;;;;;;;11.45;10.25;;;;;;;9.20;88.11;100339.16;2511589;28;20035;-77
2024/03/18 03:14:58;;;;;;;14.93;10.48;;;;;;;9.21;87.96;100337.41;2513134;28;20078;-76
2024/03/18 03:16:12;;;;;;;17.65;10.75;;;;;;;9.21;88.26;100342.63;2521442;28;20142;-77
2024/03/18 03:17:26;;;;;;;12.75;11.30;;;;;;;9.22;88.28;100336.56;2512124;28;20022;-78
2024/03/18 03:18:39;;;;;;;19.08;12.10;;;;;;;9.22;88.39;100334.81;2515090;28;20022;-77
2024/03/18 03:19:53;;;;;;;15.70;11.57;;;;;;;9.23;88.40;100333.06;2526568;28;20057;-78
2024/03/18 03:21:06;;;;;;;13.45;10.43;;;;;;;9.24;88.23;100332.16;2527648;28;20049;-77
2024/03/18 03:22:20;;;;;;;15.55;10.57;;;;;;;9.25;88.37;100326.97;2512375;28;20409;-76
2024/03/18 03:23:34;;;;;;;16.63;10.85;;;;;;;9.28;88.33;100328.69;2511622;28;20033;-77
2024/03/18 03:24:48;;;;;;;13.57;10.15;;;;;;;9.30;88.23;100329.53;2511896;28;20550;-77
2024/03/18 03:26:02;;;;;;;14.15;10.77;;;;;;;9.30;88.21;100327.78;2526933;28;20030;-77
2024/03/18 03:27:16;;;;;;;12.80;10.82;;;;;;;9.31;88.35;100320.84;2527981;28;20356;-77
2024/03/18 03:28:29;;;;;;;15.30;11.75;;;;;;;9.33;88.28;100321.69;2511388;28;20030;-77
2024/03/18 03:29:42;;;;;;;11.65;10.45;;;;;;;9.35;88.38;100317.34;2514637;28;20571;-77
2024/03/18 03:31:06;;;;;;;14.80;11.25;;;;;;;9.35;88.02;100322.53;2522053;28;20407;-77
2024/03/18 03:32:19;;;;;;;12.63;10.25;;;;;;;9.35;88.28;100322.53;2522030;28;20065;-77
2024/03/18 03:33:35;;;;;;;12.45;10.50;;;;;;;9.35;88.03;100315.59;2521589;28;20041;-77
2024/03/18 03:34:48;;;;;;;12.65;10.70;;;;;;;9.35;88.00;100312.97;2541042;28;20132;-77
2024/03/18 03:36:02;;;;;;;14.48;11.38;;;;;;;9.35;88.19;100312.13;2533726;28;20021;-77
2024/03/18 03:37:15;;;;;;;22.15;11.93;;;;;;;9.36;88.31;100319.91;2522073;28;20034;-77
2024/03/18 03:38:29;;;;;;;13.85;10.65;;;;;;;9.37;88.11;100311.22;2520497;28;20041;-77
2024/03/18 03:39:42;;;;;;;14.93;12.93;;;;;;;9.38;88.27;100318.16;2534405;28;20108;-78
2024/03/18 03:40:55;;;;;;;21.33;11.73;;;;;;;9.37;88.23;100307.75;2534590;28;20486;-77
2024/03/18 03:42:09;;;;;;;13.20;10.80;;;;;;;9.37;88.16;100305.13;2520787;28;20491;-77
2024/03/18 03:43:22;;;;;;;17.27;11.25;;;;;;;9.38;88.11;100309.50;2520947;28;20054;-77
2024/03/18 03:44:35;;;;;;;14.88;11.55;;;;;;;9.37;88.17;100303.41;2521905;28;20040;-77
2024/03/18 03:46:02;;;;;;;16.23;10.93;;;;;;;9.38;88.31;100307.75;2521398;28;20042;-78
2024/03/18 03:47:15;;;;;;;13.98;10.52;;;;;;;9.37;88.07;100300.81;2513408;28;20495;-77
2024/03/18 03:48:29;;;;;;;12.90;11.18;;;;;;;9.38;88.03;100306.88;2518138;28;20026;-77
2024/03/18 03:49:42;;;;;;;15.40;12.23;;;;;;;9.39;88.00;100303.38;2523516;28;20026;-77
2024/03/18 03:50:56;;;;;;;12.98;10.88;;;;;;;9.38;88.17;100296.47;2523211;28;20395;-77
2024/03/18 03:52:10;;;;;;;13.10;10.15;;;;;;;9.38;88.12;100299.06;2523161;28;20030;-77
2024/03/18 03:53:27;;;;;;;16.83;10.55;;;;;;;9.38;88.04;100293.88;2523032;28;20367;-77
2024/03/18 03:54:40;;;;;;;14.82;9.77;;;;;;;9.36;87.78;100290.41;2523285;28;20022;-77
2024/03/18 03:56:00;;;;;;;13.63;9.25;;;;;;;9.36;88.02;100293.00;2523292;28;20446;-77
2024/03/18 03:57:13;;;;;;;22.50;9.85;;;;;;;9.34;87.88;100289.53;2523867;28;20080;-78
2024/03/18 03:58:27;;;;;;;11.30;9.10;;;;;;;9.32;87.84;100296.50;2522970;28;20511;-77
2024/03/18 03:59:40;;;;;;;12.85;8.98;;;;;;;9.28;87.82;100294.81;2542960;28;20465;-77
2024/03/18 04:00:53;;;;;;;11.15;8.40;;;;;;;9.28;87.87;100294.81;2529391;28;20026;-77
2024/03/18 04:02:09;;;;;;;10.82;8.70;;;;;;;9.28;87.72;100289.63;2522360;28;20084;-78
2024/03/18 04:03:23;;;;;;;10.60;8.48;;;;;;;9.26;87.75;100284.41;2523901;28;20077;-77
2024/03/18 04:04:37;;;;;;;16.17;9.70;;;;;;;9.25;87.58;100280.09;2523015;28;20076;-77
2024/03/18 04:05:51;;;;;;;13.27;10.00;;;;;;;9.23;87.48;100281.84;2535789;28;20029;-78
2024/03/18 04:07:05;;;;;;;11.55;8.77;;;;;;;9.23;87.57;100287.03;2529199;28;20016;-77
2024/03/18 04:08:18;;;;;;;12.88;9.13;;;;;;;9.24;87.68;100282.69;2522759;28;20029;-77
2024/03/18 04:09:31;;;;;;;15.48;11.50;;;;;;;9.25;87.79;100287.03;2522869;28;20527;-77
2024/03/18 04:10:44;;;;;;;11.00;9.70;;;;;;;9.24;87.97;100286.19;2523703;28;20467;-77
2024/03/18 04:11:58;;;;;;;17.38;10.18;;;;;;;9.25;87.59;100279.22;2524012;28;20040;-77
2024/03/18 04:13:11;;;;;;;12.82;9.50;;;;;;;9.25;87.67;100284.44;2523785;28;20032;-77
2024/03/18 04:14:24;;;;;;;12.75;10.32;;;;;;;9.23;87.69;100279.22;2523234;28;20034;-77
2024/03/18 04:15:37;;;;;;;18.27;9.65;;;;;;;9.23;87.59;100283.59;2523784;28;20133;-77
2024/03/18 04:16:51;;;;;;;11.00;9.90;;;;;;;9.23;87.65;100278.38;2523781;28;20097;-77
2024/03/18 04:18:04;;;;;;;21.85;11.10;;;;;;;9.25;87.58;100279.22;2542012;28;20036;-77
2024/03/18 04:19:17;;;;;;;16.15;10.50;;;;;;;9.24;87.58;100280.09;2519287;28;20132;-77
2024/03/18 04:20:32;;;;;;;13.77;9.82;;;;;;;9.25;87.76;100279.22;2516388;28;20398;-77
2024/03/18 04:21:46;;;;;;;16.00;8.60;;;;;;;9.25;87.90;100269.69;2536067;28;20069;-78
2024/03/18 04:22:59;;;;;;;10.75;9.45;;;;;;;9.26;87.84;100273.13;2535950;28;20037;-77
2024/03/18 04:24:14;;;;;;;12.82;10.50;;;;;;;9.27;87.70;100277.50;2523464;28;20403;-77
2024/03/18 04:25:27;;;;;;;13.32;9.38;;;;;;;9.27;88.09;100274.88;2520805;28;20080;-78
2024/03/18 04:26:42;;;;;;;13.52;9.25;;;;;;;9.27;87.96;100273.13;2513082;28;20037;-78
2024/03/18 04:27:59;;;;;;;12.10;10.23;;;;;;;9.30;87.95;100277.44;2514515;28;20025;-78
2024/03/18 04:29:13;;;;;;;16.15;10.75;;;;;;;9.32;87.88;100280.88;2495286;28;20709;-76
2024/03/18 04:30:26;;;;;;;14.10;9.52;;;;;;;9.34;87.89;100279.13;2486720;29;20038;-77
2024/03/18 04:31:39;;;;;;;13.30;10.57;;;;;;;9.33;87.92;100275.66;2497362;28;20057;-77
2024/03/18 04:32:52;;;;;;;13.40;9.43;;;;;;;9.35;88.09;100273.06;2502889;28;20037;-77
2024/03/18 04:34:05;;;;;;;13.13;9.50;;;;;;;9.35;88.08;100271.31;2509241;28;20034;-77
2024/03/18 04:35:19;;;;;;;16.75;12.35;;;;;;;9.38;88.13;100275.63;2508238;28;20050;-77
2024/03/18 04:36:32;;;;;;;11.20;8.63;;;;;;;9.37;88.02;100272.16;2502435;28;20031;-76
2024/03/18 04:37:46;;;;;;;11.95;10.32;;;;;;;9.40;88.05;100281.69;2503776;28;20045;-77
2024/03/18 04:38:59;;;;;;;12.40;10.50;;;;;;;9.42;87.83;100279.06;2508522;28;20030;-76
2024/03/18 04:40:13;;;;;;;12.80;10.60;;;;;;;9.41;88.02;100274.75;2508924;28;20116;-77
2024/03/18 04:41:26;;;;;;;16.25;10.27;;;;;;;9.41;87.94;100269.53;2496353;28;20022;-77
2024/03/18 04:42:40;;;;;;;13.75;10.68;;;;;;;9.42;87.95;100271.25;2506954;28;20578;-76
2024/03/18 04:43:53;;;;;;;30.25;11.15;;;;;;;9.42;87.87;100266.03;2504045;28;20026;-77
2024/03/18 04:45:07;;;;;;;15.43;10.75;;;;;;;9.41;87.98;100275.59;2515831;28;20017;-76
2024/03/18 04:46:20;;;;;;;12.63;10.73;;;;;;;9.39;87.86;100269.53;2527128;28;20551;-76
2024/03/18 04:47:40;;;;;;;15.38;13.52;;;;;;;9.41;87.96;100270.38;2519176;28;20033;-76
2024/03/18 04:48:53;;;;;;;13.00;10.88;;;;;;;9.41;87.79;100270.38;2510865;28;20022;-76
2024/03/18 04:50:08;;;;;;;20.88;11.90;;;;;;;9.39;88.00;100269.53;2505740;28;20035;-77
2024/03/18 04:51:21;;;;;;;13.63;11.73;;;;;;;9.39;87.91;100272.13;2502517;28;20052;-77
2024/03/18 04:52:37;;;;;;;18.00;12.98;;;;;;;9.39;87.94;100269.53;2506736;28;20049;-76
2024/03/18 04:53:51;;;;;;;12.38;11.02;;;;;;;9.40;88.18;100268.66;2525438;28;20134;-77
2024/03/18 04:55:05;;;;;;;14.40;12.57;;;;;;;9.42;88.20;100279.06;2509058;28;20030;-77
2024/03/18 04:56:18;;;;;;;16.95;11.82;;;;;;;9.43;88.12;100275.59;2507610;28;20022;-76
2024/03/18 04:57:41;;;;;;;25.90;13.55;;;;;;;9.45;88.11;100271.22;2517196;28;20052;-76
2024/03/18 04:58:54;;;;;;;15.93;14.15;;;;;;;9.44;88.14;100270.34;2507868;28;20518;-76
2024/03/18 05:00:14;;;;;;;19.35;13.98;;;;;;;9.46;88.00;100278.16;2496327;28;20042;-77
2024/03/18 05:01:27;;;;;;;19.65;15.93;;;;;;;9.47;88.06;100270.31;2502413;28;20030;-76
2024/03/18 05:02:41;;;;;;;21.67;17.08;;;;;;;9.47;88.15;100267.72;2497071;28;20098;-77
2024/03/18 05:03:54;;;;;;;19.77;14.95;;;;;;;9.49;88.00;100271.16;2492910;28;20098;-76
2024/03/18 05:05:10;;;;;;;20.85;15.50;;;;;;;9.50;87.96;100269.41;2496517;28;20035;-76
2024/03/18 05:06:25;;;;;;;21.75;14.93;;;;;;;9.51;88.02;100271.16;2503036;28;20066;-76
2024/03/18 05:07:39;;;;;;;17.95;15.05;;;;;;;9.51;87.98;100266.81;2503436;28;20038;-77
2024/03/18 05:08:52;;;;;;;20.70;16.85;;;;;;;9.51;87.61;100264.19;2510805;28;20022;-77
2024/03/18 05:10:06;;;;;;;22.92;14.75;;;;;;;9.52;88.03;100262.47;2515610;28;20514;-77
2024/03/18 05:11:20;;;;;;;18.33;14.43;;;;;;;9.51;88.00;100260.75;2503850;28;20050;-77
2024/03/18 05:12:33;;;;;;;21.05;15.60;;;;;;;9.50;87.94;100264.22;2512619;28;20021;-76
2024/03/18 05:13:46;;;;;;;16.75;14.50;;;;;;;9.50;87.90;100257.28;2516347;28;20031;-77
2024/03/18 05:15:00;;;;;;;21.65;15.40;;;;;;;9.52;87.90;100254.63;2508105;28;20022;-77
2024/03/18 05:16:13;;;;;;;20.00;15.13;;;;;;;9.52;87.98;100259.84;2508779;28;20103;-77
2024/03/18 05:17:27;;;;;;;20.65;16.52;;;;;;;9.53;87.80;100261.59;2502103;28;20389;-76
2024/03/18 05:18:40;;;;;;;25.55;15.70;;;;;;;9.52;88.03;100262.47;2506496;28;20539;-77
2024/03/18 05:19:54;;;;;;;20.35;16.35;;;;;;;9.53;87.93;100266.81;2513047;28;20357;-77
2024/03/18 05:21:07;;;;;;;18.63;16.52;;;;;;;9.51;87.90;100256.38;2513299;28;20479;-77
2024/03/18 05:22:20;;;;;;;23.02;16.90;;;;;;;9.50;87.97;100270.31;2504104;28;20031;-77
2024/03/18 05:23:34;;;;;;;24.02;16.48;;;;;;;9.51;87.91;100266.81;2509726;28;20050;-76
2024/03/18 05:24:47;;;;;;;20.15;14.82;;;;;;;9.51;87.67;100266.81;2512253;28;20041;-77
2024/03/18 05:26:01;;;;;;;23.60;15.98;;;;;;;9.52;88.00;100267.66;2529765;28;20039;-78
2024/03/18 05:27:18;;;;;;;20.33;15.23;;;;;;;9.53;87.86;100265.06;2528689;28;20026;-77
2024/03/18 05:28:32;;;;;;;18.35;15.40;;;;;;;9.54;87.92;100265.91;2516270;28;20026;-76
2024/03/18 05:29:46;;;;;;;19.10;16.40;;;;;;;9.53;87.96;100262.44;2515945;28;20137;-76
2024/03/18 05:31:00;;;;;;;25.30;19.02;;;;;;;9.53;88.05;100259.84;2541552;28;20021;-77
2024/03/18 05:32:15;;;;;;;26.02;19.95;;;;;;;9.53;87.85;100261.59;2528426;28;20065;-75
2024/03/18 05:33:28;;;;;;;28.70;19.58;;;;;;;9.52;87.76;100263.31;2515434;28;20028;-76
2024/03/18 05:34:42;;;;;;;30.60;21.05;;;;;;;9.51;87.78;100258.13;2535624;28;20074;-77
2024/03/18 05:35:56;;;;;;;24.95;18.92;;;;;;;9.51;87.71;100265.94;2528264;28;20422;-77
2024/03/18 05:37:09;;;;;;;27.92;19.10;;;;;;;9.49;87.75;100252.94;2522375;28;20033;-76
2024/03/18 05:38:23;;;;;;;20.30;18.13;;;;;;;9.49;87.29;100258.13;2522280;28;20121;-76
2024/03/18 05:39:37;;;;;;;19.77;17.27;;;;;;;9.50;87.74;100257.28;2522706;28;20076;-76
2024/03/18 05:40:50;;;;;;;18.50;16.45;;;;;;;9.50;87.72;100259.00;2531785;28;20017;-77
2024/03/18 05:42:04;;;;;;;24.05;18.45;;;;;;;9.49;87.65;100254.69;2521604;28;20103;-78